Flight Track Log - Related Links

Times and Time Zones

All times are in EDT time to prevent confusion due to time zone crossing. See the TMC875 flight status page for this flight to view local times or setup timezone preferences in your user account.

Time Position Orientation Groundspeed Altitude Reporting Facility
EDT Latitude Longitude Course Direction KTS MPH feet Rate Location/Type
Thu 10:07:55 PM 35.3483 -80.6572 189° South 236 272 3,000  Level Atlanta Center
Thu 10:08:28 PM 35.3406 -80.6111 102° East 259 298 3,600 1,472 Climbing FAA TRACON SMA TRACON (SMA)
Thu 10:08:48 PM 35.3244 -80.5953 141° Southeast 246 283 4,300 3,100 Climbing FAA TRACON SMA TRACON (SMA)
Thu 10:09:28 PM 35.2814 -80.5628 148° Southeast 264 304 6,700 3,443 Climbing FAA TRACON SMA TRACON (SMA)
Thu 10:09:49 PM 35.2611 -80.5478 149° Southeast 270 311 7,800 3,150 Climbing FAA TRACON SMA TRACON (SMA)
Thu 10:10:08 PM 35.2381 -80.5411 167° South 253 291 8,800 3,692 Climbing FAA TRACON SMA TRACON (SMA)
Thu 10:10:28 PM 35.2100 -80.5533 200° South 268 308 10,200 3,805 Climbing FAA TRACON SMA TRACON (SMA)
Thu 10:10:49 PM 35.1900 -80.5678 211° Southwest 255 293 11,400 3,450 Climbing FAA TRACON SMA TRACON (SMA)
Thu 10:11:08 PM 35.1700 -80.5828 212° Southwest 270 311 12,500 3,600 Climbing FAA TRACON SMA TRACON (SMA)
Thu 10:11:29 PM 35.1458 -80.6017 213° Southwest 269 310 13,800 3,300 Climbing FAA TRACON SMA TRACON (SMA)
Thu 10:11:48 PM 35.1264 -80.6169 213° Southwest 268 308 14,700 1,692 Climbing FAA TRACON SMA TRACON (SMA)
Thu 10:12:08 PM 35.1214 -80.6206 211° Southwest 268 308 14,900 293 Climbing FAA TRACON SMA TRACON (SMA)
Thu 10:12:29 PM 35.1214 -80.6206 107° East 268 308 14,900 2,447 Level FAA TRACON SMA TRACON (SMA)
Thu 10:13:00 PM 34.7078 -81.0552 189° South  Level FlightAware Approximate
Thu 10:15:07 PM 34.8653 -80.7444 202° Southwest 314 361 22,200  Level Jacksonville Center
Thu 10:16:07 PM 34.7764 -80.7872 202° Southwest 330 380 24,000 1,950 Climbing Jacksonville Center
Thu 10:17:07 PM 34.6833 -80.8272 199° South 352 405 26,100 2,000 Climbing Jacksonville Center
Thu 10:18:07 PM 34.5858 -80.8675 199° South 372 428 28,000 1,900 Climbing Jacksonville Center
Thu 10:19:07 PM 34.4886 -80.9150 202° Southwest 366 421 29,900 1,400 Climbing Jacksonville Center
Thu 10:20:07 PM 34.3972 -80.9525 199° South 375 432 30,800 950 Climbing Jacksonville Center
Thu 10:21:07 PM 34.2897 -81.0000 200° South 395 455 31,800 1,200 Climbing Jacksonville Center
Thu 10:22:07 PM 34.1736 -81.0503 200° South 400 460 33,200 1,350 Climbing Jacksonville Center
Thu 10:23:07 PM 34.0614 -81.0953 198° South 415 478 34,500 1,300 Climbing Jacksonville Center
Thu 10:24:07 PM 33.9517 -81.1425 200° South 422 486 35,800 1,350 Climbing Jacksonville Center
Thu 10:25:07 PM 33.8436 -81.1847 198° South 422 486 37,200 1,150 Climbing Jacksonville Center
Thu 10:26:07 PM 33.7461 -81.2317 202° Southwest 422 486 38,100 950 Climbing Jacksonville Center
Thu 10:27:07 PM 33.6383 -81.2786 200° South 422 486 39,100 900 Climbing Jacksonville Center
Thu 10:28:07 PM 33.5261 -81.3156 195° South 422 486 39,900 450 Climbing Jacksonville Center
Thu 10:29:07 PM 33.4117 -81.3472 193° South 422 486 40,000 50 Climbing Jacksonville Center
Thu 10:30:07 PM 33.2806 -81.3794 192° South 427 491 40,000 -50 Level Jacksonville Center
Thu 10:31:07 PM 33.1683 -81.4136 194° South 441 507 39,900  Descending Jacksonville Center
Thu 10:32:07 PM 33.0456 -81.4478 193° South 452 520 40,000  Climbing Jacksonville Center
Thu 10:33:07 PM 32.9206 -81.4794 192° South 452 520 39,900 -50 Descending Jacksonville Center
Thu 10:34:07 PM 32.7978 -81.5136 193° South 452 520 39,900 50 Level Jacksonville Center
Thu 10:35:07 PM 32.6689 -81.5500 193° South 442 509 40,000 50 Climbing Jacksonville Center
Thu 10:36:07 PM 32.5481 -81.5839 193° South 442 509 40,000  Level Jacksonville Center
Thu 10:37:07 PM 32.4253 -81.6178 193° South 455 524 40,000  Level Jacksonville Center
Thu 10:38:07 PM 32.3025 -81.6489 192° South 455 524 40,000  Level Jacksonville Center
Thu 10:39:07 PM 32.1919 -81.6797 193° South 460 529 40,000  Level Jacksonville Center
Thu 10:40:07 PM 32.0525 -81.7161 192° South 460 529 40,000  Level Jacksonville Center
Thu 10:41:07 PM 31.9339 -81.7469 192° South 449 517 40,000  Level Jacksonville Center
Thu 10:42:07 PM 31.8089 -81.7803 193° South 454 522 40,000  Level Jacksonville Center
Thu 10:43:07 PM 31.6881 -81.8133 193° South 454 522 40,000  Level Jacksonville Center
Thu 10:44:07 PM 31.5775 -81.8414 192° South 449 517 40,000  Level Jacksonville Center
Thu 10:45:07 PM 31.4442 -81.8772 193° South 454 522 40,000 -50 Level Jacksonville Center
Thu 10:46:07 PM 31.3214 -81.9100 193° South 449 517 39,900  Descending Jacksonville Center
Thu 10:47:07 PM 31.2067 -81.9403 193° South 456 525 40,000  Climbing Jacksonville Center
Thu 10:48:07 PM 31.0858 -81.9731 193° South 456 525 39,900  Descending Jacksonville Center
Thu 10:49:07 PM 30.9608 -82.0058 193° South 456 525 40,000 50 Climbing Jacksonville Center
Thu 10:50:07 PM 30.8400 -82.0383 193° South 451 519 40,000  Level Jacksonville Center
Thu 10:51:07 PM 30.7192 -82.0708 193° South 451 519 40,000  Level Jacksonville Center
Thu 10:52:07 PM 30.5919 -82.1033 192° South 451 519 40,000  Level Jacksonville Center
Thu 10:53:07 PM 30.4606 -82.1311 190° South 451 519 40,000  Level Jacksonville Center
Thu 10:54:07 PM 30.3356 -82.1633 193° South 451 519 40,000 -300 Level Jacksonville Center
Thu 10:55:07 PM 30.2083 -82.1956 192° South 459 528 39,400 -850 Descending Jacksonville Center
Thu 10:56:07 PM 30.0831 -82.2300 193° South 469 540 38,300 -1,250 Descending Jacksonville Center
Thu 10:57:07 PM 29.9728 -82.2619 194° South 469 540 36,900 -1,550 Descending Jacksonville Center
Thu 10:58:07 PM 29.8539 -82.2914 192° South 457 526 35,200 -1,800 Descending Jacksonville Center
Thu 10:59:07 PM 29.7203 -82.3233 192° South 446 513 33,300 -1,800 Descending Jacksonville Center
Thu 11:00:07 PM 29.6119 -82.3503 192° South 446 513 31,600 -2,250 Descending Jacksonville Center
Thu 11:01:07 PM 29.4803 -82.3461 178° South 456 525 28,800 -2,750 Descending Jacksonville Center
Thu 11:02:07 PM 29.3467 -82.3303 174° South 471 542 26,100 -2,750 Descending Jacksonville Center
Thu 11:03:07 PM 29.2214 -82.3167 175° South 471 542 23,300 -2,600 Descending Jacksonville Center
Thu 11:04:07 PM 29.1064 -82.3008 173° South 446 513 20,900 -2,350 Descending Jacksonville Center
Thu 11:05:07 PM 29.0042 -82.2894 174° South 409 471 18,600 -2,200 Descending Jacksonville Center
Thu 11:06:07 PM 28.9103 -82.3044 188° South 348 400 16,500 -2,061 Descending Jacksonville Center
Thu 11:07:50 PM 28.7667 -82.3667 201° Southwest 315 362 13,000 -1,362 Descending Tampa TRACON
Thu 11:08:50 PM 28.7000 -82.4333 221° Southwest 297 342 12,800 -800 Descending Tampa TRACON
Thu 11:09:50 PM 28.6333 -82.4833 213° Southwest 291 335 11,400 -1,400 Descending Tampa TRACON
Thu 11:10:50 PM 28.5500 -82.4833 180° South 282 325 10,000 -1,474 Descending Tampa TRACON
Thu 11:11:44 PM 28.4833 -82.4667 168° South 276 318 8,600 -1,526 Descending Tampa TRACON
Thu 11:12:44 PM 28.4000 -82.4667 180° South 270 311 7,100 -800 Descending Tampa TRACON
Thu 11:13:44 PM 28.3333 -82.4833 192° South 258 297 7,000 -1,050 Descending Tampa TRACON
Thu 11:14:44 PM 28.2833 -82.5167 210° Southwest 247 284 5,000 -1,364 Descending Tampa TRACON
Thu 11:15:56 PM 28.2000 -82.5167 180° South 200 230 4,000 -864 Descending Tampa TRACON
Thu 11:16:56 PM 28.1500 -82.5167 180° South 202 232 3,100 -950 Descending Tampa TRACON
Thu 11:17:56 PM 28.1000 -82.5333 196° South 197 227 2,100 -991 Descending Tampa TRACON
Thu 11:18:51 PM 28.0500 -82.5333 180° South 181 208 1,200 -835 Descending Tampa TRACON
Thu 11:19:51 PM 28.0000 -82.5333 180° South 146 168 500 -700 Descending Tampa TRACON
Thu 11:21:00 PM 27.9755 -82.5332 156° South  Level Estimated
Thu 11:28:00 PM 27.9755 -82.5332 156° South  Level Estimated
Thu 11:29:00 PM 27.9755 -82.5332 156° South  Level Estimated

Login

Don't have an account? Register now (free) for customized features, flight alerts, and more!